Time;durP1;ratioP1;P1;durP2;ratioP2;P2;SDS_P1;SDS_P2;PMS_P1;PMS_P2;Temp;Humidity;BMP_temperature;BMP_pressure;BME280_temperature;BME280_humidity;BME280_pressure;Samples;Min_cycle;Max_cycle;Signal;HPM_P1;HPM_P2
2021/04/01 00:01:11;;;;;;;5.93;4.70;;;11.70;99.90;;;;;;5070372;28;20279;-73
2021/04/01 00:03:37;;;;;;;6.60;3.97;;;11.80;99.90;;;;;;5069787;28;20211;-73
2021/04/01 00:06:04;;;;;;;9.70;4.37;;;11.80;99.90;;;;;;5070165;28;20210;-72
2021/04/01 00:08:31;;;;;;;5.63;4.50;;;11.70;99.90;;;;;;5070324;28;20205;-74
2021/04/01 00:10:58;;;;;;;7.17;4.43;;;11.70;99.90;;;;;;5070562;28;20232;-73
2021/04/01 00:13:24;;;;;;;6.73;4.93;;;11.70;99.90;;;;;;5070069;28;20205;-70
2021/04/01 00:15:52;;;;;;;8.20;4.27;;;11.70;99.90;;;;;;5069615;28;20209;-73
2021/04/01 00:18:21;;;;;;;10.57;5.03;;;11.60;99.90;;;;;;5070211;28;20289;-74
2021/04/01 00:20:47;;;;;;;8.30;4.20;;;11.70;99.90;;;;;;5069344;28;20305;-73
2021/04/01 00:23:14;;;;;;;9.07;4.37;;;11.60;99.90;;;;;;5069966;28;20202;-72
2021/04/01 00:25:41;;;;;;;12.67;4.80;;;11.70;99.90;;;;;;5069714;28;20206;-73
2021/04/01 00:28:07;;;;;;;6.60;4.87;;;11.70;99.90;;;;;;5069922;28;20207;-71
2021/04/01 00:30:34;;;;;;;5.10;4.33;;;11.80;99.90;;;;;;5069714;28;20206;-72
2021/04/01 00:33:02;;;;;;;7.70;4.60;;;11.70;99.90;;;;;;5070119;28;20206;-71
2021/04/01 00:35:29;;;;;;;8.50;4.20;;;11.70;99.90;;;;;;5069935;28;20237;-72
2021/04/01 00:37:55;;;;;;;7.67;4.63;;;11.70;99.90;;;;;;5072389;28;20198;-70
2021/04/01 00:40:22;;;;;;;4.57;4.07;;;11.70;99.90;;;;;;5073745;28;20233;-71
2021/04/01 00:42:49;;;;;;;10.70;4.30;;;11.70;99.90;;;;;;5072611;28;20214;-71
2021/04/01 00:45:16;;;;;;;5.63;3.97;;;11.60;99.90;;;;;;5073566;28;20618;-72
2021/04/01 00:47:43;;;;;;;7.33;4.57;;;11.60;99.90;;;;;;5072823;28;20225;-71
2021/04/01 00:50:14;;;;;;;8.33;4.53;;;11.60;99.90;;;;;;5073405;28;20727;-73
2021/04/01 00:52:41;;;;;;;13.27;4.97;;;11.60;99.90;;;;;;5073225;28;20206;-72
2021/04/01 00:55:09;;;;;;;9.70;4.53;;;11.50;99.90;;;;;;5073153;28;20234;-75
2021/04/01 00:57:37;;;;;;;5.70;4.77;;;11.50;99.90;;;;;;5072909;28;20206;-72
2021/04/01 01:00:06;;;;;;;10.87;4.83;;;11.60;99.90;;;;;;5073121;28;20202;-71
2021/04/01 01:02:32;;;;;;;13.73;4.40;;;11.60;99.90;;;;;;5073107;28;20206;-71
2021/04/01 01:04:59;;;;;;;6.37;4.30;;;11.60;99.90;;;;;;5073372;28;20206;-71
2021/04/01 01:07:26;;;;;;;8.50;4.53;;;11.50;99.90;;;;;;5073340;28;20210;-71
2021/04/01 01:09:53;;;;;;;9.57;4.53;;;11.50;99.90;;;;;;5072972;28;20210;-75
2021/04/01 01:12:19;;;;;;;8.03;3.73;;;11.40;99.90;;;;;;5072790;28;20220;-72
2021/04/01 01:14:46;;;;;;;8.60;5.43;;;11.50;99.90;;;;;;5072594;28;20230;-73
2021/04/01 01:17:15;;;;;;;8.67;4.77;;;11.50;99.90;;;;;;5072434;28;20285;-74
2021/04/01 01:19:46;;;;;;;16.03;5.70;;;11.60;99.90;;;;;;5072793;28;20232;-76
2021/04/01 01:22:13;;;;;;;13.70;5.63;;;11.50;99.90;;;;;;5072578;28;20692;-71
2021/04/01 01:24:40;;;;;;;10.13;5.03;;;11.50;99.90;;;;;;5072277;28;20688;-77
2021/04/01 01:27:07;;;;;;;6.30;4.93;;;11.50;99.90;;;;;;5072707;28;20202;-73
2021/04/01 01:29:34;;;;;;;9.63;5.17;;;11.50;99.90;;;;;;5071974;28;20206;-76
2021/04/01 01:32:01;;;;;;;9.03;4.87;;;11.60;99.90;;;;;;5072961;28;20727;-76
2021/04/01 01:34:28;;;;;;;9.53;4.70;;;11.50;99.90;;;;;;5072879;28;20241;-75
2021/04/01 01:36:55;;;;;;;6.40;5.03;;;11.50;99.90;;;;;;5072387;28;20284;-74
2021/04/01 01:39:21;;;;;;;6.53;5.10;;;11.50;99.90;;;;;;5072258;28;20257;-75
2021/04/01 01:41:49;;;;;;;8.77;4.83;;;11.50;99.90;;;;;;5072271;28;20217;-76
2021/04/01 01:44:15;;;;;;;13.07;5.07;;;11.40;99.90;;;;;;5072549;28;20207;-74
2021/04/01 01:46:42;;;;;;;12.97;4.90;;;11.50;99.90;;;;;;5058298;28;20218;-72
2021/04/01 01:49:08;;;;;;;9.57;5.10;;;11.40;99.90;;;;;;5072299;28;20209;-75
2021/04/01 01:51:35;;;;;;;9.13;5.23;;;11.40;99.90;;;;;;5069751;28;20260;-75
2021/04/01 01:54:02;;;;;;;11.47;5.33;;;11.40;99.90;;;;;;5072308;28;20226;-74
2021/04/01 01:56:28;;;;;;;8.70;4.53;;;11.30;99.90;;;;;;5072336;28;20634;-73
2021/04/01 01:58:57;;;;;;;10.80;5.17;;;11.40;99.90;;;;;;5071924;28;20228;-74
2021/04/01 02:01:25;;;;;;;7.27;4.40;;;11.40;99.90;;;;;;5072402;28;20202;-76
2021/04/01 02:03:51;;;;;;;10.03;5.57;;;11.40;99.90;;;;;;5071902;28;20205;-77
2021/04/01 02:06:20;;;;;;;8.57;5.23;;;11.40;99.90;;;;;;5071869;28;20576;-75
2021/04/01 02:08:47;;;;;;;21.00;6.23;;;11.40;99.90;;;;;;5071163;28;20670;-76
2021/04/01 02:11:18;;;;;;;8.00;4.53;;;11.40;99.90;;;;;;5071899;28;20202;-78
2021/04/01 02:13:45;;;;;;;10.10;4.93;;;11.40;99.90;;;;;;5071555;28;20225;-78
2021/04/01 02:16:13;;;;;;;11.83;4.60;;;11.30;99.90;;;;;;5071789;28;20202;-73
2021/04/01 02:18:40;;;;;;;9.43;4.77;;;11.30;99.90;;;;;;5071376;28;20218;-73
2021/04/01 02:21:09;;;;;;;11.27;4.60;;;11.30;99.90;;;;;;5071379;28;20715;-74
2021/04/01 02:23:36;;;;;;;5.60;4.50;;;11.30;99.90;;;;;;5071032;28;20284;-72
2021/04/01 02:26:04;;;;;;;7.37;4.73;;;11.30;99.90;;;;;;5071564;28;20402;-71
2021/04/01 02:28:32;;;;;;;6.83;4.80;;;11.30;99.90;;;;;;5071655;28;20206;-73
2021/04/01 02:31:01;;;;;;;9.67;4.93;;;11.30;99.90;;;;;;5071695;28;20586;-72
2021/04/01 02:33:30;;;;;;;9.00;4.57;;;11.30;99.90;;;;;;5071286;28;20745;-73
2021/04/01 02:35:57;;;;;;;9.70;4.67;;;11.30;99.90;;;;;;5071039;28;20213;-71
2021/04/01 02:38:25;;;;;;;9.37;5.00;;;11.30;99.90;;;;;;5070745;28;20586;-77
2021/04/01 02:40:52;;;;;;;6.30;4.40;;;11.30;99.90;;;;;;5071231;28;20213;-77
2021/04/01 02:43:23;;;;;;;8.60;5.13;;;11.20;99.90;;;;;;5071222;28;20206;-73
2021/04/01 02:45:49;;;;;;;7.77;5.43;;;11.20;99.90;;;;;;5071023;28;20202;-75
2021/04/01 02:48:15;;;;;;;8.30;4.73;;;11.20;99.90;;;;;;5070904;28;20214;-74
2021/04/01 02:50:43;;;;;;;9.23;5.53;;;11.20;99.90;;;;;;5070818;28;20214;-71
2021/04/01 02:53:10;;;;;;;10.10;5.33;;;11.30;99.90;;;;;;5070770;28;20796;-71
2021/04/01 02:55:36;;;;;;;5.23;4.40;;;11.20;99.90;;;;;;5070275;28;20261;-70
2021/04/01 02:58:03;;;;;;;9.97;5.50;;;11.20;99.90;;;;;;5071218;28;20293;-70
2021/04/01 03:00:30;;;;;;;8.77;5.50;;;11.20;99.90;;;;;;5070490;28;20206;-71
2021/04/01 03:03:00;;;;;;;11.50;4.67;;;11.20;99.90;;;;;;5070631;28;20206;-74
2021/04/01 03:05:26;;;;;;;9.67;5.23;;;11.30;99.90;;;;;;5070443;28;20685;-73
2021/04/01 03:07:54;;;;;;;12.40;6.70;;;11.30;99.90;;;;;;5070629;28;20202;-71
2021/04/01 03:10:20;;;;;;;8.20;5.23;;;11.30;99.90;;;;;;5070722;28;20219;-71
2021/04/01 03:12:47;;;;;;;8.73;5.07;;;11.20;99.90;;;;;;5070147;28;20260;-70
2021/04/01 03:15:14;;;;;;;13.13;5.60;;;11.20;99.90;;;;;;5070645;28;20307;-73
2021/04/01 03:17:42;;;;;;;7.97;5.67;;;11.20;99.90;;;;;;5070232;28;20198;-73
2021/04/01 03:20:10;;;;;;;16.33;5.40;;;11.10;99.90;;;;;;5070568;28;20202;-73
2021/04/01 03:22:36;;;;;;;8.23;6.13;;;11.10;99.90;;;;;;5069980;28;20228;-73
2021/04/01 03:25:06;;;;;;;7.43;5.10;;;11.10;99.90;;;;;;5070576;28;20206;-73
2021/04/01 03:27:32;;;;;;;12.43;6.77;;;11.10;99.90;;;;;;5070054;28;20217;-73
2021/04/01 03:30:05;;;;;;;15.70;5.70;;;11.10;99.90;;;;;;5070838;28;20278;-73
2021/04/01 03:32:33;;;;;;;7.93;6.53;;;11.10;99.90;;;;;;5070720;28;20680;-73
2021/04/01 03:35:00;;;;;;;11.40;6.20;;;11.10;99.90;;;;;;5070639;28;20226;-71
2021/04/01 03:37:27;;;;;;;9.87;5.60;;;11.00;99.90;;;;;;5070519;28;20217;-72
2021/04/01 03:39:54;;;;;;;9.50;5.80;;;11.00;99.90;;;;;;5069897;28;20202;-73
2021/04/01 03:42:22;;;;;;;9.13;5.77;;;10.90;99.90;;;;;;5070392;28;20223;-72
2021/04/01 03:44:48;;;;;;;11.50;6.37;;;11.00;99.90;;;;;;5069708;28;20210;-69
2021/04/01 03:47:15;;;;;;;10.30;6.33;;;10.90;99.90;;;;;;5070281;28;20742;-69
2021/04/01 03:49:42;;;;;;;9.17;5.77;;;10.90;99.90;;;;;;5069484;28;20238;-72
2021/04/01 03:52:08;;;;;;;16.13;6.27;;;11.00;99.90;;;;;;5070542;28;20206;-71
2021/04/01 03:54:35;;;;;;;14.60;6.67;;;11.00;99.90;;;;;;5070164;28;20230;-71
2021/04/01 03:57:03;;;;;;;8.87;5.50;;;11.00;99.90;;;;;;5070648;28;20202;-70
2021/04/01 03:59:36;;;;;;;13.10;7.13;;;11.00;99.90;;;;;;5070486;28;20297;-77
2021/04/01 04:02:24;;;;;;;14.57;6.50;;;10.90;99.90;;;;;;5070266;28;20285;-75
2021/04/01 04:04:58;;;;;;;10.43;7.07;;;10.90;99.90;;;;;;5069466;28;20289;-76
2021/04/01 04:07:51;;;;;;;9.87;5.47;;;11.00;99.90;;;;;;5070174;28;20205;-71
2021/04/01 04:13:06;;;;;;;9.27;5.83;;;10.80;99.90;;;;;;5072985;28;20248;-74
2021/04/01 04:15:33;;;;;;;12.73;6.40;;;10.90;99.90;;;;;;5074035;28;20367;-70
2021/04/01 04:18:00;;;;;;;8.50;5.60;;;10.90;99.90;;;;;;5074255;28;20202;-72
2021/04/01 04:20:27;;;;;;;14.20;5.60;;;10.90;99.90;;;;;;5073826;28;20209;-72
2021/04/01 04:22:54;;;;;;;8.17;5.27;;;10.90;99.90;;;;;;5073248;28;20292;-72
2021/04/01 04:25:20;;;;;;;9.77;5.53;;;11.00;99.90;;;;;;5073879;28;20241;-70
2021/04/01 04:28:02;;;;;;;11.37;6.00;;;10.90;99.90;;;;;;5073258;28;20343;-74
2021/04/01 04:30:29;;;;;;;9.57;6.03;;;10.90;99.90;;;;;;5074083;28;20213;-72
2021/04/01 04:32:57;;;;;;;9.43;5.47;;;10.90;99.90;;;;;;5072939;28;20666;-73
2021/04/01 04:35:23;;;;;;;11.07;5.63;;;10.80;99.90;;;;;;5073406;28;20233;-70
2021/04/01 04:37:50;;;;;;;10.53;5.67;;;10.80;99.90;;;;;;5073185;28;20210;-69
2021/04/01 04:40:17;;;;;;;10.67;6.03;;;10.80;99.90;;;;;;5073844;28;20202;-74
2021/04/01 04:42:43;;;;;;;9.90;5.67;;;10.80;99.90;;;;;;5073091;28;20206;-69
2021/04/01 04:45:10;;;;;;;12.03;4.87;;;10.80;99.90;;;;;;5073482;28;20206;-69
2021/04/01 04:47:38;;;;;;;6.93;5.13;;;10.70;99.90;;;;;;5072801;28;20598;-73
2021/04/01 04:50:07;;;;;;;10.50;6.13;;;10.80;99.90;;;;;;5073398;28;20202;-70
2021/04/01 04:52:34;;;;;;;10.27;5.27;;;10.80;99.90;;;;;;5072993;28;20592;-72
2021/04/01 04:55:03;;;;;;;7.57;5.43;;;10.80;99.90;;;;;;5073558;28;20257;-70
2021/04/01 04:57:34;;;;;;;9.90;5.20;;;10.70;99.90;;;;;;5073180;28;20670;-69
2021/04/01 05:00:20;;;;;;;7.10;4.53;;;10.70;99.90;;;;;;5073221;28;20206;-71
2021/04/01 05:05:34;;;;;;;10.33;5.07;;;10.70;99.90;;;;;;5063323;28;20217;-68
2021/04/01 05:08:00;;;;;;;6.53;4.90;;;10.80;99.90;;;;;;5073534;28;20279;-70
2021/04/01 05:10:27;;;;;;;10.80;5.70;;;10.70;99.90;;;;;;5073129;28;20248;-69
2021/04/01 05:13:05;;;;;;;10.33;5.93;;;10.70;99.90;;;;;;5072854;28;20214;-76
2021/04/01 05:15:31;;;;;;;8.67;5.40;;;10.70;99.90;;;;;;5073385;28;20269;-69
2021/04/01 05:18:12;;;;;;;13.30;6.60;;;10.80;99.90;;;;;;5072942;28;20206;-69
2021/04/01 05:20:40;;;;;;;17.43;5.87;;;10.90;99.90;;;;;;5072936;28;20206;-71
2021/04/01 05:23:12;;;;;;;11.90;5.17;;;10.80;99.90;;;;;;5072173;28;20735;-71
2021/04/01 05:25:38;;;;;;;13.77;6.07;;;10.90;99.90;;;;;;5072712;28;20234;-73
2021/04/01 05:28:10;;;;;;;9.73;5.33;;;10.90;99.90;;;;;;5072417;28;20198;-74
2021/04/01 05:30:36;;;;;;;8.73;5.63;;;10.70;99.90;;;;;;5072421;28;20211;-71
2021/04/01 05:33:03;;;;;;;10.60;5.23;;;10.70;99.90;;;;;;5072389;28;20289;-73
2021/04/01 05:35:29;;;;;;;6.37;5.47;;;10.70;99.90;;;;;;5072622;28;20244;-71
2021/04/01 05:37:57;;;;;;;6.23;5.60;;;10.80;99.90;;;;;;5072119;28;20206;-72
2021/04/01 05:40:24;;;;;;;11.37;6.00;;;10.90;99.90;;;;;;5072859;28;20213;-77
2021/04/01 05:42:51;;;;;;;11.10;5.47;;;10.90;99.90;;;;;;5072237;28;20213;-72
2021/04/01 05:45:20;;;;;;;10.93;5.43;;;10.90;99.90;;;;;;5072378;28;20220;-75
2021/04/01 05:47:53;;;;;;;9.07;6.00;;;10.90;99.90;;;;;;5071822;28;20678;-76
2021/04/01 05:50:35;;;;;;;10.43;5.10;;;10.90;99.90;;;;;;5072067;28;20202;-76
2021/04/01 06:01:51;;;;;;;8.77;4.87;;;11.10;99.90;;;;;;5062284;28;20648;-73
2021/04/01 06:04:27;;;;;;;12.03;5.70;;;11.20;99.90;;;;;;5071926;28;20704;-73
2021/04/01 06:07:00;;;;;;;10.77;5.70;;;11.10;99.90;;;;;;5071522;28;20592;-72
2021/04/01 06:09:33;;;;;;;7.10;4.87;;;11.10;99.90;;;;;;5069797;28;20244;-82
2021/04/01 06:12:00;;;;;;;8.07;5.83;;;11.20;99.90;;;;;;5070558;28;20202;-77
2021/04/01 06:14:55;;;;;;;10.77;5.13;;;11.30;99.90;;;;;;5067726;28;20234;-77
2021/04/01 06:17:25;;;;;;;11.27;6.13;;;11.30;99.90;;;;;;5042464;28;20598;-76
2021/04/01 06:19:55;;;;;;;6.87;4.53;;;11.40;99.90;;;;;;5068824;28;20259;-74
2021/04/01 06:22:24;;;;;;;8.77;4.70;;;11.40;99.90;;;;;;5068277;28;20217;-74
2021/04/01 06:24:53;;;;;;;8.23;4.73;;;11.50;99.90;;;;;;5066999;28;20232;-80
2021/04/01 06:27:25;;;;;;;9.53;5.57;;;11.50;99.90;;;;;;5066245;28;20206;-75
2021/04/01 06:30:15;;;;;;;23.83;5.80;;;11.50;99.90;;;;;;5067744;28;20581;-78
2021/04/01 06:32:44;;;;;;;6.00;4.80;;;11.50;99.90;;;;;;5070834;28;20202;-75
2021/04/01 06:35:14;;;;;;;8.53;5.57;;;11.60;99.90;;;;;;5070338;28;20237;-75
2021/04/01 06:37:59;;;;;;;7.10;4.80;;;11.70;99.90;;;;;;5064250;28;20203;-76
2021/04/01 06:40:27;;;;;;;9.23;5.43;;;11.70;99.90;;;;;;5055975;28;20206;-75
2021/04/01 06:43:03;;;;;;;7.47;4.83;;;11.80;99.90;;;;;;5067707;28;20210;-76
2021/04/01 06:45:30;;;;;;;7.53;5.00;;;11.80;99.90;;;;;;5071325;28;20210;-77
2021/04/01 06:47:58;;;;;;;13.67;4.80;;;11.90;99.90;;;;;;5070513;28;20255;-74
2021/04/01 06:50:27;;;;;;;11.53;5.10;;;12.00;99.90;;;;;;5069533;28;20206;-74
2021/04/01 06:53:02;;;;;;;6.47;5.20;;;12.00;99.90;;;;;;5067800;28;20198;-72
2021/04/01 06:55:33;;;;;;;8.40;5.53;;;12.00;99.90;;;;;;5059813;28;20714;-73
2021/04/01 06:58:10;;;;;;;8.77;4.70;;;12.20;99.90;;;;;;5070924;28;20210;-73
2021/04/01 07:00:48;;;;;;;11.17;4.83;;;12.20;99.90;;;;;;5070389;28;20244;-73
2021/04/01 07:03:20;;;;;;;9.10;5.80;;;12.30;99.90;;;;;;5069095;28;20665;-79
2021/04/01 07:05:50;;;;;;;10.37;4.80;;;12.30;99.90;;;;;;5058926;28;20209;-80
2021/04/01 07:08:22;;;;;;;6.67;5.23;;;12.30;99.90;;;;;;5070537;28;20713;-79
2021/04/01 07:10:59;;;;;;;11.97;5.63;;;12.50;99.90;;;;;;5069364;28;20281;-76
2021/04/01 07:13:30;;;;;;;7.33;4.80;;;12.50;99.90;;;;;;5067421;28;20218;-79
2021/04/01 07:16:02;;;;;;;11.17;5.13;;;12.60;99.90;;;;;;5067444;28;20793;-78
2021/04/01 07:18:53;;;;;;;8.83;4.37;;;12.70;99.90;;;;;;5070231;28;20649;-80
2021/04/01 07:30:46;;;;;;;8.20;4.20;;;12.80;99.90;;;;;;5066131;28;20206;-83
2021/04/01 07:35:56;;;;;;;8.17;3.97;;;13.40;99.90;;;;;;5066988;28;20717;-77
2021/04/01 07:46:59;;;;;;;11.50;5.23;;;13.60;99.90;;;;;;5067408;28;20331;-78
2021/04/01 07:49:29;;;;;;;6.83;3.83;;;13.70;99.90;;;;;;5100562;28;20213;-75
2021/04/01 07:51:59;;;;;;;10.00;4.83;;;13.90;99.90;;;;;;5066037;28;20201;-77
2021/04/01 07:54:53;;;;;;;11.57;5.07;;;13.80;99.90;;;;;;5068466;28;20222;-80
2021/04/01 07:57:47;;;;;;;9.67;3.77;;;13.90;99.90;;;;;;5068458;28;20289;-78
2021/04/01 08:00:19;;;;;;;14.07;4.88;;;14.00;99.90;;;;;;5069084;28;20583;-81
2021/04/01 08:05:32;;;;;;;6.72;4.38;;;14.10;99.90;;;;;;5048732;28;20281;-82
2021/04/01 08:08:02;;;;;;;9.95;4.88;;;14.40;99.90;;;;;;5069866;28;20198;-77
2021/04/01 08:10:31;;;;;;;7.97;4.20;;;14.50;99.90;;;;;;5069697;28;20279;-73
2021/04/01 08:13:03;;;;;;;7.43;4.90;;;14.40;99.90;;;;;;5068153;28;20297;-72
2021/04/01 08:15:36;;;;;;;9.73;4.63;;;14.30;99.90;;;;;;5069647;28;20222;-76
2021/04/01 08:18:12;;;;;;;12.90;4.38;;;14.30;99.90;;;;;;5067262;28;20451;-80
2021/04/01 08:20:43;;;;;;;8.50;4.85;;;14.50;99.90;;;;;;5067415;28;20705;-82
2021/04/01 08:23:16;;;;;;;18.38;4.85;;;14.70;99.90;;;;;;5064628;28;20226;-85
2021/04/01 08:25:47;;;;;;;14.27;5.13;;;14.70;99.90;;;;;;5068734;28;20202;-80
2021/04/01 08:28:34;;;;;;;9.82;3.80;;;15.10;99.90;;;;;;5069566;28;20678;-77
2021/04/01 08:33:57;;;;;;;10.50;4.80;;;15.10;99.90;;;;;;5061071;28;20203;-81
2021/04/01 08:36:27;;;;;;;11.82;4.55;;;15.20;99.90;;;;;;5069880;28;20209;-79
2021/04/01 08:38:54;;;;;;;6.03;3.63;;;15.20;99.90;;;;;;5065479;28;20305;-82
2021/04/01 08:41:43;;;;;;;8.45;4.63;;;15.60;99.90;;;;;;5067202;28;20584;-78
2021/04/01 08:44:18;;;;;;;10.48;5.25;;;15.60;99.90;;;;;;5068329;28;20259;-81
2021/04/01 08:47:01;;;;;;;9.18;3.45;;;15.70;99.90;;;;;;5068357;28;20695;-81
2021/04/01 08:49:44;;;;;;;8.35;3.92;;;15.60;99.90;;;;;;5069969;28;20217;-79
2021/04/01 08:52:55;;;;;;;9.18;4.55;;;16.20;99.90;;;;;;5065531;28;20206;-81
2021/04/01 08:55:33;;;;;;;5.85;4.07;;;15.80;99.90;;;;;;5069503;28;20229;-79
2021/04/01 08:58:04;;;;;;;10.23;4.65;;;16.00;99.90;;;;;;5070904;28;20696;-79
2021/04/01 09:00:32;;;;;;;9.00;4.20;;;16.10;99.90;;;;;;5073130;28;20202;-81
2021/04/01 09:03:00;;;;;;;10.23;4.47;;;16.60;99.90;;;;;;5073654;28;20209;-77
2021/04/01 09:05:27;;;;;;;7.57;3.95;;;16.60;99.90;;;;;;5073025;28;20202;-81
2021/04/01 09:07:58;;;;;;;10.27;4.97;;;16.30;99.90;;;;;;5072548;28;20236;-80
2021/04/01 09:10:29;;;;;;;12.05;4.28;;;16.40;99.90;;;;;;5073153;28;20263;-85
2021/04/01 09:12:59;;;;;;;9.35;4.43;;;16.90;99.90;;;;;;5072791;28;20202;-76
2021/04/01 09:15:35;;;;;;;7.75;3.50;;;17.70;99.90;;;;;;5072906;28;20313;-83
2021/04/01 09:18:04;;;;;;;9.45;3.80;;;17.90;99.90;;;;;;5072933;28;20586;-77
2021/04/01 09:20:31;;;;;;;10.52;5.82;;;17.80;99.90;;;;;;5073094;28;20236;-78
2021/04/01 09:23:00;;;;;;;7.72;3.40;;;18.20;99.90;;;;;;5071389;28;20293;-79
2021/04/01 09:25:37;;;;;;;8.68;3.75;;;18.10;99.90;;;;;;5066545;28;20206;-77
2021/04/01 09:28:05;;;;;;;6.88;3.35;;;18.70;99.90;;;;;;5071354;28;20253;-81
2021/04/01 09:30:32;;;;;;;6.10;4.20;;;18.90;99.90;;;;;;5072824;28;20210;-83
2021/04/01 09:33:02;;;;;;;9.57;4.55;;;19.30;99.90;;;;;;5072930;28;20202;-86
2021/04/01 09:35:31;;;;;;;8.00;3.65;;;18.80;99.90;;;;;;5072670;28;20234;-81
2021/04/01 09:38:01;;;;;;;7.68;3.70;;;19.20;99.90;;;;;;5071712;28;20634;-80
2021/04/01 09:40:29;;;;;;;6.72;3.97;;;20.00;99.90;;;;;;5072408;28;20210;-80
2021/04/01 09:43:08;;;;;;;4.85;3.80;;;20.70;99.90;;;;;;5068749;28;20217;-81
2021/04/01 09:45:35;;;;;;;8.45;4.45;;;20.30;99.90;;;;;;5070747;28;20221;-80
2021/04/01 09:48:04;;;;;;;8.77;3.42;;;20.60;99.90;;;;;;5072230;28;20217;-80
2021/04/01 09:50:33;;;;;;;5.78;3.72;;;22.20;99.90;;;;;;5068359;28;20206;-83
2021/04/01 09:53:01;;;;;;;7.78;3.75;;;21.40;99.90;;;;;;5072543;28;20624;-78
2021/04/01 09:55:39;;;;;;;9.65;4.07;;;21.20;99.90;;;;;;5071949;28;20614;-77
2021/04/01 09:58:17;;;;;;;7.47;4.35;;;20.80;99.90;;;;;;5072381;28;20736;-80
2021/04/01 10:03:38;;;;;;;10.68;3.35;;;20.50;99.90;;;;;;5066973;28;20207;-76
2021/04/01 10:06:05;;;;;;;6.53;3.95;;;19.60;99.90;;;;;;5071564;28;20202;-81
2021/04/01 10:08:35;;;;;;;9.38;4.40;;;20.20;99.90;;;;;;5072470;28;20206;-82
2021/04/01 10:11:15;;;;;;;6.00;3.55;;;20.90;99.90;;;;;;5071620;28;20210;-82
2021/04/01 10:13:42;;;;;;;6.90;3.85;;;21.00;99.90;;;;;;5064646;28;20201;-83
2021/04/01 10:16:21;;;;;;;5.80;3.78;;;22.40;99.90;;;;;;5068761;28;20259;-83
2021/04/01 10:18:49;;;;;;;7.85;4.40;;;21.80;99.90;;;;;;5069571;28;20284;-82
2021/04/01 10:21:16;;;;;;;7.95;4.10;;;22.00;99.90;;;;;;5069862;28;20202;-79
2021/04/01 10:23:44;;;;;;;11.63;3.80;;;21.10;99.90;;;;;;5068908;28;20218;-80
2021/04/01 10:26:13;;;;;;;4.45;2.83;;;22.10;99.90;;;;;;5068535;28;20256;-81
2021/04/01 10:28:57;;;;;;;8.18;3.92;;;22.70;99.90;;;;;;5067074;28;20208;-82
2021/04/01 10:31:23;;;;;;;5.40;3.67;;;21.80;99.90;;;;;;5070335;28;20242;-81
2021/04/01 10:34:09;;;;;;;10.65;3.67;;;22.10;99.90;;;;;;5070601;28;20205;-83
2021/04/01 10:36:40;;;;;;;6.57;4.05;;;19.80;99.90;;;;;;5067473;28;20256;-80
2021/04/01 10:39:09;;;;;;;8.98;4.72;;;18.70;99.90;;;;;;5071089;28;20206;-82
2021/04/01 10:41:46;;;;;;;10.15;3.63;;;18.60;99.90;;;;;;5070306;28;20206;-84
2021/04/01 10:44:13;;;;;;;12.18;3.90;;;18.00;99.90;;;;;;5071670;28;20301;-81
2021/04/01 10:46:43;;;;;;;4.00;3.00;;;18.10;99.90;;;;;;5070892;28;20669;-85
2021/04/01 10:49:11;;;;;;;10.73;4.20;;;18.40;99.90;;;;;;5071452;28;20218;-78
2021/04/01 10:51:47;;;;;;;7.47;3.65;;;18.40;99.90;;;;;;5070790;28;20292;-81
2021/04/01 10:54:14;;;;;;;13.48;3.65;;;18.20;99.90;;;;;;5070284;28;20213;-82
2021/04/01 10:56:49;;;;;;;7.22;3.20;;;18.20;99.90;;;;;;5069990;28;20206;-81
2021/04/01 10:59:15;;;;;;;6.05;3.90;;;18.20;99.90;;;;;;5069106;28;20687;-81
2021/04/01 11:01:44;;;;;;;7.88;3.15;;;18.30;99.90;;;;;;5067421;28;20206;-79
2021/04/01 11:04:13;;;;;;;5.13;3.38;;;17.90;99.90;;;;;;5070723;28;20314;-81
2021/04/01 11:06:41;;;;;;;5.07;2.78;;;17.90;99.90;;;;;;5068843;28;20210;-83
2021/04/01 11:09:11;;;;;;;10.90;3.85;;;17.70;99.90;;;;;;5067559;28;20281;-81
2021/04/01 11:11:56;;;;;;;9.93;3.25;;;18.00;99.90;;;;;;5070414;28;20293;-81
2021/04/01 11:14:23;;;;;;;4.40;3.05;;;18.30;99.90;;;;;;5070755;28;20206;-83
2021/04/01 11:16:52;;;;;;;7.05;4.07;;;18.20;99.90;;;;;;5070417;28;20282;-82
2021/04/01 11:19:20;;;;;;;11.38;4.43;;;18.10;99.90;;;;;;5070126;28;20206;-79
2021/04/01 11:21:49;;;;;;;7.70;3.92;;;18.70;99.90;;;;;;5069717;28;20666;-81
2021/04/01 11:24:27;;;;;;;8.75;2.88;;;19.00;99.90;;;;;;5070439;28;20679;-82
2021/04/01 11:26:55;;;;;;;4.93;3.20;;;19.00;99.90;;;;;;5070379;28;20213;-82
2021/04/01 11:29:30;;;;;;;5.18;3.83;;;19.20;99.90;;;;;;5070463;28;20206;-78
2021/04/01 11:32:10;;;;;;;8.23;3.15;;;18.90;99.90;;;;;;5064501;28;20229;-75
2021/04/01 11:34:38;;;;;;;11.45;3.58;;;19.40;99.90;;;;;;5069196;28;20225;-73
2021/04/01 11:37:06;;;;;;;6.32;3.53;;;19.00;99.90;;;;;;5070217;28;20190;-73
2021/04/01 11:39:37;;;;;;;6.25;3.47;;;19.30;99.90;;;;;;5069737;28;20651;-75
2021/04/01 11:42:07;;;;;;;6.78;2.78;;;19.80;99.90;;;;;;5070179;28;20207;-80
2021/04/01 11:44:36;;;;;;;7.40;3.33;;;19.60;99.90;;;;;;5069976;28;20549;-76
2021/04/01 11:47:12;;;;;;;8.75;3.60;;;19.70;99.90;;;;;;5070375;28;20206;-72
2021/04/01 11:49:39;;;;;;;12.30;3.58;;;19.40;99.90;;;;;;5068347;28;20209;-76
2021/04/01 11:52:09;;;;;;;11.57;3.53;;;19.70;99.90;;;;;;5061912;28;20209;-75
2021/04/01 11:54:37;;;;;;;8.90;3.75;;;19.60;99.90;;;;;;5069425;28;20214;-77
2021/04/01 11:57:14;;;;;;;6.13;3.53;;;19.50;99.90;;;;;;5069000;28;20248;-85
2021/04/01 11:59:44;;;;;;;5.65;3.20;;;19.20;99.90;;;;;;5066172;28;20197;-85
2021/04/01 12:02:12;;;;;;;6.30;3.42;;;19.40;99.90;;;;;;5065489;28;20689;-88
2021/04/01 12:04:44;;;;;;;5.72;3.03;;;19.40;99.90;;;;;;5062569;28;20214;-81
2021/04/01 12:07:12;;;;;;;7.85;4.07;;;19.70;99.90;;;;;;5067962;28;20584;-86
2021/04/01 12:09:40;;;;;;;12.55;5.47;;;19.50;99.90;;;;;;5068619;28;20256;-80
2021/04/01 12:12:07;;;;;;;4.47;3.38;;;19.70;99.90;;;;;;5063356;28;20233;-80
2021/04/01 12:14:35;;;;;;;8.25;3.53;;;19.80;99.90;;;;;;5069497;28;20673;-79
2021/04/01 12:17:03;;;;;;;5.80;2.97;;;19.90;99.90;;;;;;5070384;28;20588;-85
2021/04/01 12:19:30;;;;;;;10.25;3.95;;;19.40;99.90;;;;;;5066735;28;20217;-79
2021/04/01 12:21:56;;;;;;;7.90;3.33;;;19.40;99.90;;;;;;5067497;28;20210;-81
2021/04/01 12:24:24;;;;;;;7.18;2.83;;;19.50;99.90;;;;;;5069326;28;21089;-80
2021/04/01 12:26:54;;;;;;;7.13;3.70;;;19.40;99.90;;;;;;5069536;28;20210;-77
2021/04/01 12:29:22;;;;;;;8.10;3.40;;;19.80;99.90;;;;;;5067653;28;20625;-77
2021/04/01 12:31:54;;;;;;;8.85;3.63;;;19.90;99.90;;;;;;5066352;28;20297;-79
2021/04/01 12:34:27;;;;;;;9.85;3.45;;;20.20;99.90;;;;;;5066993;28;20205;-81
2021/04/01 12:36:54;;;;;;;6.47;3.33;;;20.20;99.90;;;;;;5070975;28;20212;-78
2021/04/01 12:39:30;;;;;;;9.68;4.55;;;19.80;99.90;;;;;;5070904;28;20217;-78
2021/04/01 12:41:56;;;;;;;5.22;3.38;;;19.60;99.90;;;;;;5064665;28;20572;-79
2021/04/01 12:44:34;;;;;;;6.55;3.10;;;19.70;99.90;;;;;;5067498;28;20213;-81
2021/04/01 12:47:01;;;;;;;7.80;3.85;;;20.00;99.90;;;;;;5062060;28;20753;-79
2021/04/01 12:49:32;;;;;;;3.90;2.92;;;20.30;99.90;;;;;;5073404;28;20580;-78
2021/04/01 12:52:02;;;;;;;4.70;3.35;;;20.20;99.90;;;;;;5072507;28;20355;-80
2021/04/01 12:54:33;;;;;;;8.38;3.60;;;20.40;99.90;;;;;;5072793;28;20214;-77
2021/04/01 12:57:01;;;;;;;8.00;3.08;;;20.50;99.90;;;;;;5073404;28;20696;-79
2021/04/01 12:59:34;;;;;;;6.32;3.10;;;20.40;99.90;;;;;;5068530;28;20203;-77
2021/04/01 13:02:04;;;;;;;7.03;2.25;;;20.50;99.90;;;;;;5068949;28;20248;-79
2021/04/01 13:04:32;;;;;;;5.32;3.75;;;20.60;99.90;;;;;;5061724;28;20675;-80
2021/04/01 13:07:06;;;;;;;6.57;2.72;;;20.60;99.90;;;;;;5071660;28;20238;-81
2021/04/01 13:09:42;;;;;;;6.47;3.38;;;20.90;99.90;;;;;;5063131;28;20293;-78
2021/04/01 13:12:11;;;;;;;9.93;3.85;;;21.00;99.90;;;;;;5070366;28;20205;-78
2021/04/01 13:14:38;;;;;;;6.43;2.58;;;20.80;99.90;;;;;;5071740;28;20688;-80
2021/04/01 13:17:04;;;;;;;6.97;2.85;;;20.90;99.90;;;;;;5073029;28;20206;-78
2021/04/01 13:19:31;;;;;;;6.25;2.75;;;20.80;99.90;;;;;;5073269;28;20202;-79
2021/04/01 13:22:10;;;;;;;5.05;2.78;;;20.60;99.90;;;;;;5073006;28;20210;-77
2021/04/01 13:24:43;;;;;;;6.15;2.97;;;20.40;99.90;;;;;;5071474;28;20559;-78
2021/04/01 13:27:11;;;;;;;7.70;3.78;;;20.30;99.90;;;;;;5064167;28;20230;-78
2021/04/01 13:29:38;;;;;;;4.35;3.22;;;20.70;99.90;;;;;;5072630;28;20204;-79
2021/04/01 13:32:07;;;;;;;4.07;2.83;;;20.90;99.90;;;;;;5072835;28;20593;-75
2021/04/01 13:34:38;;;;;;;6.45;3.38;;;20.70;99.90;;;;;;5068107;28;20224;-77
2021/04/01 13:37:06;;;;;;;10.52;3.10;;;20.70;99.90;;;;;;5072761;28;20693;-78
2021/04/01 13:39:34;;;;;;;8.57;3.17;;;20.60;99.90;;;;;;5072554;28;20210;-81
2021/04/01 13:42:10;;;;;;;7.60;3.70;;;20.60;99.90;;;;;;5073655;28;20209;-77